Time;durP1;ratioP1;P1;durP2;ratioP2;P2;SDS_P1;SDS_P2;PMS_P1;PMS_P2;Temp;Humidity;BMP_temperature;BMP_pressure;BME280_temperature;BME280_humidity;BME280_pressure;Samples;Min_cycle;Max_cycle;Signal;HPM_P1;HPM_P2
2021/03/29 00:02:00;;;;;;;0.88;0.15;;;20.40;59.20;;;;;;5045808;28;20523;-79
2021/03/29 00:04:27;;;;;;;0.70;0.20;;;20.40;59.20;;;;;;5028566;28;20032;-80
2021/03/29 00:06:56;;;;;;;0.65;0.10;;;20.40;58.80;;;;;;5024529;28;20114;-79
2021/03/29 00:09:23;;;;;;;0.47;0.00;;;20.40;59.30;;;;;;5025591;28;20052;-79
2021/03/29 00:11:50;;;;;;;0.73;0.10;;;20.30;59.30;;;;;;5007451;28;20052;-79
2021/03/29 00:14:16;;;;;;;0.82;0.10;;;20.40;59.20;;;;;;5022270;28;20061;-79
2021/03/29 00:16:43;;;;;;;0.43;0.10;;;20.40;59.00;;;;;;5021351;28;20449;-79
2021/03/29 00:19:09;;;;;;;0.68;0.10;;;20.40;59.20;;;;;;5043006;28;20021;-79
2021/03/29 00:21:36;;;;;;;0.80;0.10;;;20.30;59.10;;;;;;5025451;28;20037;-79
2021/03/29 00:24:03;;;;;;;2.53;0.10;;;20.40;59.00;;;;;;5028516;28;20233;-79
2021/03/29 00:26:29;;;;;;;1.20;0.10;;;20.40;59.00;;;;;;5028466;28;20371;-80
2021/03/29 00:28:55;;;;;;;0.63;0.10;;;20.40;59.30;;;;;;5042130;28;20130;-79
2021/03/29 00:31:20;;;;;;;0.50;0.10;;;20.30;58.90;;;;;;5007632;28;20036;-80
2021/03/29 00:33:47;;;;;;;0.75;0.10;;;20.30;58.70;;;;;;5008309;28;20468;-79
2021/03/29 00:36:14;;;;;;;0.50;0.10;;;20.30;58.90;;;;;;5005216;28;20075;-82
2021/03/29 00:38:41;;;;;;;0.70;0.10;;;20.30;58.90;;;;;;5025167;28;20080;-79
2021/03/29 00:41:10;;;;;;;1.33;0.10;;;20.40;58.80;;;;;;5041802;28;20030;-79
2021/03/29 00:43:39;;;;;;;0.30;0.10;;;20.40;59.10;;;;;;5024114;28;20047;-80
2021/03/29 00:46:08;;;;;;;0.30;0.05;;;20.30;59.00;;;;;;5007580;28;20818;-79
2021/03/29 00:48:34;;;;;;;0.80;0.20;;;20.30;59.00;;;;;;5026108;28;20029;-80
2021/03/29 00:51:10;;;;;;;0.38;0.10;;;20.30;58.80;;;;;;5026715;28;20032;-79
2021/03/29 00:53:39;;;;;;;0.90;0.10;;;20.30;59.10;;;;;;5027924;28;20037;-79
2021/03/29 00:56:06;;;;;;;0.80;0.10;;;20.30;59.00;;;;;;5014249;28;20048;-80
2021/03/29 00:58:32;;;;;;;0.70;0.20;;;20.30;59.20;;;;;;5011867;28;20159;-80
2021/03/29 01:01:03;;;;;;;0.63;0.10;;;20.30;59.10;;;;;;5028536;28;20025;-79
2021/03/29 01:03:32;;;;;;;0.67;0.10;;;20.30;58.70;;;;;;5026814;28;20513;-79
2021/03/29 01:06:04;;;;;;;1.70;0.08;;;20.30;59.20;;;;;;5011045;28;20033;-79
2021/03/29 01:08:31;;;;;;;0.30;0.10;;;20.30;59.20;;;;;;5013172;28;20052;-79
2021/03/29 01:10:59;;;;;;;0.30;0.08;;;20.30;59.20;;;;;;5026705;28;20026;-80
2021/03/29 01:13:25;;;;;;;0.68;0.10;;;20.30;59.40;;;;;;5027905;28;20021;-79
2021/03/29 01:15:55;;;;;;;0.65;0.20;;;20.30;59.20;;;;;;5024692;28;20029;-80
2021/03/29 01:18:22;;;;;;;1.92;0.10;;;20.30;59.00;;;;;;5016049;28;20487;-79
2021/03/29 01:20:55;;;;;;;1.08;0.10;;;20.30;59.30;;;;;;5024463;28;20029;-79
2021/03/29 01:23:21;;;;;;;0.30;0.10;;;20.30;59.10;;;;;;5009312;28;20025;-79
2021/03/29 01:26:26;;;;;;;0.75;0.20;;;20.30;59.30;;;;;;5010248;28;20076;-79
2021/03/29 01:28:52;;;;;;;0.35;0.10;;;20.30;59.30;;;;;;5011206;28;20025;-80
2021/03/29 01:31:19;;;;;;;1.05;0.10;;;20.30;59.50;;;;;;5044815;28;20067;-79
2021/03/29 01:33:45;;;;;;;0.45;0.10;;;20.30;59.30;;;;;;5048866;28;20492;-79
2021/03/29 01:36:11;;;;;;;1.08;0.15;;;20.30;59.10;;;;;;5031741;28;20056;-79
2021/03/29 01:38:38;;;;;;;0.55;0.10;;;20.30;59.20;;;;;;5016370;28;20059;-79
2021/03/29 01:41:04;;;;;;;0.38;0.00;;;20.30;59.20;;;;;;5027757;28;20088;-79
2021/03/29 01:43:31;;;;;;;0.52;0.10;;;20.20;59.20;;;;;;5027991;28;20032;-79
2021/03/29 01:45:58;;;;;;;1.67;0.10;;;20.30;59.30;;;;;;5044121;28;20017;-79
2021/03/29 01:48:25;;;;;;;0.47;0.10;;;20.30;59.20;;;;;;5030132;28;20029;-79
2021/03/29 01:50:53;;;;;;;0.30;0.10;;;20.30;59.10;;;;;;5052031;28;20029;-79
2021/03/29 01:53:23;;;;;;;0.45;0.10;;;20.30;59.10;;;;;;5020566;28;20040;-80
2021/03/29 01:55:49;;;;;;;0.38;0.10;;;20.30;59.00;;;;;;5035231;28;20041;-79
2021/03/29 01:58:17;;;;;;;0.38;0.10;;;20.30;59.80;;;;;;5032439;28;20028;-80
2021/03/29 02:00:50;;;;;;;0.43;0.10;;;20.20;59.20;;;;;;5021147;28;20487;-79
2021/03/29 02:03:16;;;;;;;0.88;0.10;;;20.30;59.00;;;;;;5009863;28;20026;-80
2021/03/29 02:05:43;;;;;;;0.95;0.10;;;20.20;58.90;;;;;;5031822;28;20037;-80
2021/03/29 02:08:10;;;;;;;0.47;0.10;;;20.30;58.80;;;;;;5029804;28;20055;-81
2021/03/29 02:10:39;;;;;;;0.30;0.10;;;20.20;59.30;;;;;;5017891;28;20040;-80
2021/03/29 02:13:07;;;;;;;0.38;0.10;;;20.20;58.80;;;;;;5014478;28;20485;-79
2021/03/29 02:15:33;;;;;;;0.45;0.10;;;20.20;59.20;;;;;;5020820;28;20039;-80
2021/03/29 02:18:04;;;;;;;0.30;0.00;;;20.20;58.90;;;;;;5055453;28;20048;-80
2021/03/29 02:20:36;;;;;;;0.60;0.13;;;20.20;59.00;;;;;;5036487;28;20055;-80
2021/03/29 02:23:02;;;;;;;0.35;0.10;;;20.20;59.00;;;;;;5018464;28;20025;-80
2021/03/29 02:25:31;;;;;;;0.22;0.10;;;20.20;59.00;;;;;;5032638;28;20033;-81
2021/03/29 02:27:59;;;;;;;0.50;0.10;;;20.20;58.90;;;;;;5022442;28;20021;-81
2021/03/29 02:30:31;;;;;;;0.40;0.10;;;20.20;59.10;;;;;;5032675;28;20032;-81
2021/03/29 02:32:58;;;;;;;0.90;0.13;;;20.20;58.90;;;;;;5016717;28;20610;-80
2021/03/29 02:35:25;;;;;;;0.88;0.10;;;20.20;59.20;;;;;;5030800;28;20032;-81
2021/03/29 02:37:54;;;;;;;1.65;0.10;;;20.20;58.80;;;;;;5008717;28;20500;-80
2021/03/29 02:40:21;;;;;;;0.22;0.00;;;20.20;59.20;;;;;;5032462;28;20033;-80
2021/03/29 02:42:49;;;;;;;0.57;0.10;;;20.20;59.30;;;;;;5032922;28;20017;-80
2021/03/29 02:45:17;;;;;;;0.35;0.10;;;20.20;59.30;;;;;;5015502;28;20031;-81
2021/03/29 02:47:44;;;;;;;0.30;0.10;;;20.20;59.30;;;;;;5029790;28;20031;-80
2021/03/29 02:50:23;;;;;;;0.28;0.10;;;20.20;59.20;;;;;;5025911;28;20092;-79
2021/03/29 02:52:52;;;;;;;1.00;0.10;;;20.20;59.40;;;;;;5029261;28;20033;-79
2021/03/29 02:55:19;;;;;;;0.30;0.10;;;20.20;59.60;;;;;;5031416;28;20029;-79
2021/03/29 02:57:46;;;;;;;0.95;0.13;;;20.20;59.50;;;;;;5027857;28;20057;-80
2021/03/29 03:00:16;;;;;;;0.73;0.10;;;20.20;59.10;;;;;;5054616;28;20032;-79
2021/03/29 03:02:43;;;;;;;0.45;0.10;;;20.20;59.50;;;;;;5023326;28;20167;-80
2021/03/29 03:05:10;;;;;;;0.50;0.10;;;20.20;59.40;;;;;;5016603;28;20071;-81
2021/03/29 03:07:37;;;;;;;0.50;0.10;;;20.20;58.90;;;;;;5018391;28;20018;-79
2021/03/29 03:10:11;;;;;;;1.05;0.10;;;20.20;59.30;;;;;;5009235;28;20028;-78
2021/03/29 03:12:48;;;;;;;0.45;0.10;;;20.20;59.80;;;;;;5013256;28;20032;-81
2021/03/29 03:15:20;;;;;;;1.08;0.00;;;20.20;60.20;;;;;;5028321;28;20057;-79
2021/03/29 03:17:47;;;;;;;0.85;0.10;;;20.20;59.80;;;;;;5030664;28;20033;-79
2021/03/29 03:20:16;;;;;;;0.10;0.00;;;20.20;59.80;;;;;;5034202;28;20035;-79
2021/03/29 03:22:52;;;;;;;0.10;0.00;;;20.20;60.20;;;;;;5012134;28;20028;-79
2021/03/29 03:25:27;;;;;;;0.30;0.10;;;20.20;60.20;;;;;;5044097;28;20013;-79
2021/03/29 03:27:53;;;;;;;0.20;0.00;;;20.20;60.50;;;;;;5028583;28;20025;-79
2021/03/29 03:30:30;;;;;;;0.20;0.00;;;20.20;60.50;;;;;;5029020;28;20036;-79
2021/03/29 03:32:56;;;;;;;0.35;0.10;;;20.20;60.40;;;;;;5015995;28;20029;-79
2021/03/29 03:35:25;;;;;;;0.60;0.10;;;20.20;60.60;;;;;;5009172;28;20018;-80
2021/03/29 03:37:54;;;;;;;0.80;0.10;;;20.20;60.30;;;;;;5018235;28;20052;-80
2021/03/29 03:40:22;;;;;;;0.95;0.10;;;20.20;60.40;;;;;;5031621;28;20035;-80
2021/03/29 03:42:54;;;;;;;0.57;0.10;;;20.20;60.20;;;;;;5029506;28;20013;-80
2021/03/29 03:45:25;;;;;;;0.40;0.10;;;20.20;60.80;;;;;;5047506;28;20055;-80
2021/03/29 03:47:51;;;;;;;0.40;0.00;;;20.20;60.40;;;;;;5012226;28;20048;-80
2021/03/29 03:50:18;;;;;;;0.55;0.10;;;20.20;60.70;;;;;;5048438;28;20122;-80
2021/03/29 03:52:45;;;;;;;0.13;0.00;;;20.20;60.60;;;;;;5029629;28;20033;-79
2021/03/29 03:55:14;;;;;;;2.65;0.20;;;20.20;60.60;;;;;;5011322;28;20025;-80
2021/03/29 03:57:41;;;;;;;0.50;0.10;;;20.20;60.40;;;;;;5039913;28;20038;-79
2021/03/29 04:00:15;;;;;;;0.52;0.00;;;20.10;61.00;;;;;;5046639;28;20052;-79
2021/03/29 04:02:41;;;;;;;1.55;0.10;;;20.20;61.10;;;;;;5047547;28;20396;-79
2021/03/29 04:05:18;;;;;;;0.95;0.10;;;20.10;61.00;;;;;;5029092;28;20021;-79
2021/03/29 04:07:47;;;;;;;0.10;0.00;;;20.10;60.90;;;;;;5027532;28;20022;-79
2021/03/29 04:10:16;;;;;;;0.20;0.00;;;20.20;61.10;;;;;;5008531;28;20029;-79
2021/03/29 04:12:44;;;;;;;0.43;0.10;;;20.10;61.20;;;;;;5025506;28;20040;-79
2021/03/29 04:15:10;;;;;;;0.30;0.00;;;20.10;61.10;;;;;;5030914;28;20054;-79
2021/03/29 04:17:37;;;;;;;0.20;0.00;;;20.20;61.30;;;;;;5012333;28;20163;-79
2021/03/29 04:20:04;;;;;;;0.30;0.00;;;20.10;60.60;;;;;;5030587;28;20032;-80
2021/03/29 04:22:30;;;;;;;0.30;0.08;;;20.10;61.00;;;;;;5036798;28;20380;-79
2021/03/29 04:24:56;;;;;;;0.50;0.10;;;20.10;61.20;;;;;;5030083;28;20013;-80
2021/03/29 04:27:21;;;;;;;0.55;0.10;;;20.10;60.50;;;;;;5013854;28;20027;-79
2021/03/29 04:29:47;;;;;;;0.30;0.00;;;20.10;61.20;;;;;;5030995;28;20033;-79
2021/03/29 04:32:13;;;;;;;0.32;0.10;;;20.10;61.00;;;;;;5028889;28;20036;-80
2021/03/29 04:34:38;;;;;;;0.38;0.10;;;20.10;61.30;;;;;;5033990;28;20553;-79
2021/03/29 04:37:04;;;;;;;1.02;0.10;;;20.10;61.10;;;;;;5016000;28;20165;-79
2021/03/29 04:39:29;;;;;;;0.40;0.10;;;20.10;60.50;;;;;;5028321;28;20427;-79
2021/03/29 04:41:55;;;;;;;0.30;0.00;;;20.10;61.30;;;;;;5017258;28;20055;-80
2021/03/29 04:44:21;;;;;;;0.25;0.00;;;20.10;61.60;;;;;;5035685;28;20037;-79
2021/03/29 04:46:46;;;;;;;0.22;0.05;;;20.10;62.20;;;;;;5015656;28;20022;-81
2021/03/29 04:49:12;;;;;;;0.20;0.03;;;20.10;62.30;;;;;;5036096;28;20063;-79
2021/03/29 04:51:38;;;;;;;0.28;0.10;;;20.10;62.00;;;;;;5007988;28;20083;-80
2021/03/29 04:54:04;;;;;;;0.35;0.10;;;20.10;60.80;;;;;;5027510;28;20028;-80
2021/03/29 04:56:29;;;;;;;0.38;0.10;;;20.10;60.80;;;;;;5027663;28;20115;-79
2021/03/29 04:58:55;;;;;;;1.08;0.10;;;20.10;60.80;;;;;;5008873;28;20049;-80
2021/03/29 05:01:21;;;;;;;0.57;0.08;;;20.10;60.90;;;;;;5027562;28;20495;-80
2021/03/29 05:03:46;;;;;;;0.55;0.10;;;20.10;62.00;;;;;;5045288;28;20021;-79
2021/03/29 05:06:12;;;;;;;0.40;0.10;;;20.10;60.70;;;;;;5025148;28;20072;-79
2021/03/29 05:08:37;;;;;;;1.05;0.10;;;20.10;61.30;;;;;;5011775;28;20108;-79
2021/03/29 05:11:03;;;;;;;1.08;0.10;;;20.10;61.20;;;;;;5005085;28;20021;-80
2021/03/29 05:13:29;;;;;;;0.88;0.10;;;20.10;61.00;;;;;;5049999;28;20029;-79
2021/03/29 05:15:54;;;;;;;0.45;0.10;;;20.10;60.60;;;;;;5027463;28;20035;-80
2021/03/29 05:18:20;;;;;;;0.52;0.10;;;20.10;61.20;;;;;;5015483;28;20030;-80
2021/03/29 05:20:46;;;;;;;0.88;0.10;;;20.00;62.20;;;;;;5022747;28;20040;-80
2021/03/29 05:23:11;;;;;;;0.73;0.10;;;20.10;61.90;;;;;;5010834;28;20025;-79
2021/03/29 05:25:37;;;;;;;0.68;0.10;;;20.10;61.40;;;;;;5032009;28;20076;-80
2021/03/29 05:28:02;;;;;;;0.40;0.10;;;20.20;61.10;;;;;;5013732;28;20029;-80
2021/03/29 05:30:28;;;;;;;0.30;0.10;;;20.30;60.70;;;;;;5036797;28;20060;-80
2021/03/29 05:32:53;;;;;;;0.50;0.10;;;20.40;60.80;;;;;;5017621;28;20029;-80
2021/03/29 05:35:19;;;;;;;0.77;0.10;;;20.50;60.00;;;;;;5011736;28;20037;-79
2021/03/29 05:37:45;;;;;;;0.17;0.00;;;20.60;60.10;;;;;;5016954;28;20043;-79
2021/03/29 05:40:16;;;;;;;1.17;0.15;;;20.70;59.80;;;;;;5029679;28;20047;-80
2021/03/29 05:42:42;;;;;;;0.45;0.00;;;20.70;60.40;;;;;;5034529;28;20102;-81
2021/03/29 05:45:09;;;;;;;0.40;0.10;;;20.80;60.10;;;;;;5032867;28;20436;-80
2021/03/29 05:47:37;;;;;;;0.20;0.00;;;20.80;59.50;;;;;;5014038;28;20025;-80
2021/03/29 05:50:12;;;;;;;0.32;0.10;;;20.80;59.40;;;;;;5018392;28;20048;-80
2021/03/29 05:52:40;;;;;;;0.38;0.10;;;20.80;60.40;;;;;;5029134;28;20036;-80
2021/03/29 05:55:15;;;;;;;0.50;0.10;;;20.90;60.30;;;;;;5026688;28;20032;-81
2021/03/29 06:00:38;;;;;;;1.10;0.10;;;21.00;59.40;;;;;;5004664;28;20092;-80
2021/03/29 06:03:28;;;;;;;0.70;0.20;;;21.00;59.30;;;;;;5011319;28;20136;-81
2021/03/29 06:05:59;;;;;;;0.68;0.10;;;21.10;59.80;;;;;;5010811;28;20044;-80
2021/03/29 06:08:26;;;;;;;0.90;0.10;;;21.10;59.50;;;;;;5045637;28;20060;-83
2021/03/29 06:10:54;;;;;;;0.60;0.20;;;21.10;59.40;;;;;;5059106;28;20039;-82
2021/03/29 06:13:28;;;;;;;1.23;0.10;;;21.10;59.10;;;;;;5028905;28;20033;-81
2021/03/29 06:16:06;;;;;;;0.95;0.10;;;21.20;59.50;;;;;;5009181;28;20025;-81
2021/03/29 06:18:32;;;;;;;0.28;0.10;;;21.20;59.30;;;;;;5027647;28;20032;-80
2021/03/29 06:21:02;;;;;;;1.38;0.13;;;21.20;58.80;;;;;;5016800;28;20063;-81
2021/03/29 06:23:29;;;;;;;1.05;0.10;;;21.20;58.80;;;;;;5055971;28;20052;-81
2021/03/29 06:26:21;;;;;;;1.30;0.30;;;21.20;59.30;;;;;;5013842;28;20022;-81
2021/03/29 06:28:48;;;;;;;1.08;0.20;;;21.20;59.10;;;;;;5031573;28;20090;-81
2021/03/29 06:31:33;;;;;;;1.98;0.10;;;21.20;59.20;;;;;;5031051;28;20531;-81
2021/03/29 06:34:00;;;;;;;0.47;0.10;;;21.20;58.60;;;;;;5017455;28;20048;-81
2021/03/29 06:36:35;;;;;;;0.22;0.10;;;21.20;58.40;;;;;;5013935;28;20017;-81
2021/03/29 06:39:18;;;;;;;1.13;0.10;;;21.20;58.70;;;;;;5032893;28;20024;-81
2021/03/29 06:41:52;;;;;;;0.52;0.10;;;21.20;58.50;;;;;;5029685;28;20022;-80
2021/03/29 06:44:24;;;;;;;0.40;0.10;;;21.10;59.10;;;;;;5030733;28;20022;-80
2021/03/29 06:47:02;;;;;;;1.02;0.25;;;21.10;58.60;;;;;;5031069;28;20029;-82
2021/03/29 06:49:50;;;;;;;1.25;0.10;;;21.10;58.60;;;;;;5048468;28;20539;-82
2021/03/29 06:52:25;;;;;;;0.75;0.10;;;21.10;58.70;;;;;;5031439;28;20037;-81
2021/03/29 06:54:52;;;;;;;0.30;0.10;;;21.10;59.00;;;;;;5014918;28;20033;-81
2021/03/29 06:57:31;;;;;;;2.38;0.20;;;21.10;58.80;;;;;;5013727;28;20032;-80
2021/03/29 06:59:57;;;;;;;0.47;0.13;;;21.10;59.40;;;;;;5009046;28;20035;-81
2021/03/29 07:02:45;;;;;;;1.55;0.28;;;21.10;58.90;;;;;;5019078;28;20017;-81
2021/03/29 07:05:11;;;;;;;0.40;0.15;;;21.10;59.20;;;;;;5033677;28;20025;-81
2021/03/29 07:07:39;;;;;;;1.13;0.10;;;21.10;59.10;;;;;;5014265;28;20120;-81
2021/03/29 07:10:07;;;;;;;0.55;0.10;;;21.10;59.60;;;;;;5028788;28;20183;-81
2021/03/29 07:12:40;;;;;;;2.30;0.13;;;21.10;59.30;;;;;;5032739;28;20037;-81
2021/03/29 07:15:08;;;;;;;2.53;0.17;;;21.10;59.30;;;;;;5028949;28;20022;-80
2021/03/29 07:17:39;;;;;;;3.33;0.40;;;21.10;58.90;;;;;;5013783;28;20420;-81
2021/03/29 07:20:07;;;;;;;1.52;0.30;;;21.10;58.90;;;;;;5015851;28;20029;-81
2021/03/29 07:22:36;;;;;;;1.73;0.30;;;21.10;58.50;;;;;;5010880;28;20116;-81
2021/03/29 07:25:12;;;;;;;0.70;0.20;;;21.10;58.50;;;;;;5016629;28;20013;-81
2021/03/29 07:27:44;;;;;;;2.10;0.30;;;21.10;59.00;;;;;;5028633;28;20032;-81
2021/03/29 07:30:12;;;;;;;0.93;0.20;;;21.10;59.20;;;;;;5029353;28;20021;-81
2021/03/29 07:32:38;;;;;;;0.40;0.10;;;21.10;59.50;;;;;;5017534;28;20037;-81
2021/03/29 07:35:06;;;;;;;1.77;0.30;;;21.00;59.40;;;;;;5046052;28;20084;-81
2021/03/29 07:37:43;;;;;;;0.77;0.13;;;21.10;59.30;;;;;;5031413;28;20115;-81
2021/03/29 07:40:18;;;;;;;1.02;0.20;;;21.10;59.20;;;;;;5029462;28;20048;-81
2021/03/29 07:42:50;;;;;;;0.60;0.20;;;21.10;59.50;;;;;;5029735;28;20491;-81
2021/03/29 07:45:17;;;;;;;1.05;0.20;;;21.10;59.10;;;;;;5033327;28;20037;-81
2021/03/29 07:47:57;;;;;;;0.90;0.20;;;21.00;59.40;;;;;;5031430;28;20045;-82
2021/03/29 07:50:25;;;;;;;1.20;0.22;;;21.10;59.10;;;;;;5047940;28;20037;-82
2021/03/29 07:52:55;;;;;;;0.98;0.10;;;21.00;59.20;;;;;;5012579;28;20117;-82
2021/03/29 07:55:29;;;;;;;0.60;0.20;;;21.00;59.50;;;;;;5029995;28;20040;-81
2021/03/29 07:58:00;;;;;;;1.27;0.30;;;21.10;59.20;;;;;;5014498;28;20143;-81
2021/03/29 08:00:26;;;;;;;1.00;0.17;;;21.00;59.30;;;;;;5051514;28;20069;-81
2021/03/29 08:02:54;;;;;;;1.00;0.20;;;21.10;59.70;;;;;;5012364;28;20037;-81
2021/03/29 08:05:40;;;;;;;0.65;0.13;;;21.10;59.40;;;;;;5031072;28;20025;-80
2021/03/29 08:08:26;;;;;;;0.22;0.10;;;21.10;59.30;;;;;;5027977;28;20040;-81
2021/03/29 08:10:59;;;;;;;0.93;0.10;;;21.10;59.20;;;;;;5004474;28;20036;-81
2021/03/29 08:13:35;;;;;;;1.23;0.10;;;21.10;59.20;;;;;;5013684;28;20028;-81
2021/03/29 08:16:05;;;;;;;0.95;0.20;;;21.20;59.20;;;;;;5010052;28;20029;-81
2021/03/29 08:19:10;;;;;;;1.17;0.20;;;21.30;58.90;;;;;;5031555;28;20025;-82
2021/03/29 08:21:51;;;;;;;2.00;0.20;;;21.40;59.10;;;;;;5013938;28;20029;-80
2021/03/29 08:24:27;;;;;;;1.55;0.17;;;21.50;58.60;;;;;;5021428;28;20028;-80
2021/03/29 08:27:15;;;;;;;1.00;0.20;;;21.60;58.80;;;;;;5016007;28;20025;-81
2021/03/29 08:29:42;;;;;;;0.68;0.20;;;21.70;58.90;;;;;;5039777;28;20046;-81
2021/03/29 08:32:16;;;;;;;1.10;0.40;;;21.70;58.70;;;;;;5020202;28;20083;-82
2021/03/29 08:34:57;;;;;;;1.40;0.30;;;21.80;59.00;;;;;;5037825;28;20032;-82
2021/03/29 08:37:29;;;;;;;1.10;0.20;;;21.80;59.20;;;;;;5026290;28;20025;-82
2021/03/29 08:39:59;;;;;;;1.48;0.47;;;21.90;59.00;;;;;;5025641;28;20093;-82
2021/03/29 08:42:29;;;;;;;2.17;0.30;;;21.90;59.20;;;;;;5018881;28;20025;-82
2021/03/29 08:44:55;;;;;;;1.50;0.40;;;21.90;59.10;;;;;;5018767;28;20075;-82
2021/03/29 08:47:23;;;;;;;1.10;0.40;;;22.00;59.30;;;;;;5014949;28;20051;-83
2021/03/29 08:50:01;;;;;;;1.77;0.47;;;22.00;59.80;;;;;;5020240;28;20029;-82
2021/03/29 08:52:39;;;;;;;2.17;0.57;;;22.00;59.80;;;;;;5032839;28;20025;-83
2021/03/29 08:55:05;;;;;;;1.77;0.45;;;22.00;59.70;;;;;;5033394;28;20039;-83
2021/03/29 08:57:34;;;;;;;3.40;0.50;;;22.00;59.60;;;;;;5009495;28;20049;-82
2021/03/29 09:00:07;;;;;;;2.78;0.60;;;22.10;59.70;;;;;;5049415;28;20366;-83
2021/03/29 09:02:33;;;;;;;1.70;0.40;;;22.00;59.30;;;;;;5013731;28;20037;-83
2021/03/29 09:05:00;;;;;;;3.47;0.60;;;22.10;59.20;;;;;;5016528;28;20025;-82
2021/03/29 09:07:39;;;;;;;4.15;0.50;;;22.10;59.30;;;;;;5047710;28;20053;-83
2021/03/29 09:10:18;;;;;;;2.05;0.22;;;22.10;59.30;;;;;;5032266;28;20260;-81
2021/03/29 09:12:45;;;;;;;1.10;0.40;;;22.10;59.50;;;;;;5016017;28;20032;-83
2021/03/29 09:15:13;;;;;;;0.90;0.38;;;22.10;59.60;;;;;;5014366;28;20021;-82
2021/03/29 09:17:39;;;;;;;1.42;0.30;;;22.10;59.60;;;;;;5014363;28;20036;-83
2021/03/29 09:20:15;;;;;;;1.50;0.30;;;22.10;59.50;;;;;;5015757;28;20041;-83
2021/03/29 09:22:42;;;;;;;2.75;0.30;;;22.10;59.50;;;;;;5015804;28;20025;-83
2021/03/29 09:25:09;;;;;;;2.15;0.30;;;22.10;59.20;;;;;;5048348;28;20036;-82
2021/03/29 09:27:42;;;;;;;0.95;0.30;;;22.10;59.50;;;;;;5017629;28;20040;-82
2021/03/29 09:30:11;;;;;;;0.90;0.20;;;22.10;60.30;;;;;;5042570;28;20049;-82
2021/03/29 09:32:39;;;;;;;0.93;0.40;;;22.10;59.40;;;;;;5019355;28;20036;-83
2021/03/29 09:35:06;;;;;;;1.23;0.35;;;22.10;59.50;;;;;;5017181;28;20037;-83
2021/03/29 09:37:31;;;;;;;2.58;0.30;;;22.10;59.00;;;;;;5015518;28;20037;-83
2021/03/29 09:40:05;;;;;;;1.23;0.20;;;22.10;59.00;;;;;;5015563;28;20113;-83
2021/03/29 09:42:39;;;;;;;3.35;0.43;;;22.10;59.20;;;;;;5033066;28;20036;-83
2021/03/29 09:45:07;;;;;;;1.20;0.40;;;22.10;59.40;;;;;;5031924;28;20025;-83
2021/03/29 09:47:33;;;;;;;1.75;0.30;;;22.10;59.20;;;;;;5038940;28;20040;-83
2021/03/29 09:49:59;;;;;;;0.98;0.40;;;22.10;58.90;;;;;;5055996;28;20044;-82
2021/03/29 09:52:42;;;;;;;0.45;0.20;;;22.10;59.00;;;;;;5019152;28;20026;-83
2021/03/29 09:55:11;;;;;;;2.20;0.40;;;22.10;59.20;;;;;;5039807;28;20512;-83
2021/03/29 09:57:42;;;;;;;1.33;0.30;;;22.10;58.90;;;;;;5013509;28;20439;-83
2021/03/29 10:00:11;;;;;;;1.45;0.20;;;22.10;58.80;;;;;;5013652;28;20033;-83
2021/03/29 10:02:37;;;;;;;1.05;0.38;;;22.10;58.90;;;;;;5013563;28;20041;-83
2021/03/29 10:05:11;;;;;;;1.92;0.20;;;22.10;58.90;;;;;;5029597;28;20021;-83
2021/03/29 10:07:49;;;;;;;1.67;0.30;;;22.10;59.00;;;;;;5014978;28;20113;-83
2021/03/29 10:10:31;;;;;;;2.13;0.40;;;22.10;59.00;;;;;;5034947;28;20017;-83
2021/03/29 10:13:12;;;;;;;0.90;0.20;;;22.10;58.90;;;;;;5027386;28;20159;-82
2021/03/29 10:15:40;;;;;;;0.68;0.20;;;22.10;58.50;;;;;;5027272;28;20044;-83
2021/03/29 10:18:12;;;;;;;1.25;0.30;;;22.20;58.60;;;;;;5018042;28;20029;-84
2021/03/29 10:20:41;;;;;;;1.17;0.20;;;22.20;59.00;;;;;;5029248;28;20040;-83
2021/03/29 10:23:27;;;;;;;3.28;0.40;;;22.20;58.80;;;;;;5011826;28;20036;-82
2021/03/29 10:26:11;;;;;;;1.10;0.30;;;22.20;58.80;;;;;;5013370;28;20045;-83
2021/03/29 10:28:37;;;;;;;1.27;0.30;;;22.20;58.90;;;;;;5028910;28;20383;-83
2021/03/29 10:31:03;;;;;;;1.42;0.20;;;22.20;59.00;;;;;;5010497;28;20078;-83
2021/03/29 10:33:29;;;;;;;3.50;0.43;;;22.20;58.90;;;;;;5012775;28;20034;-83
2021/03/29 10:35:54;;;;;;;0.65;0.20;;;22.20;58.90;;;;;;5012308;28;20447;-83
2021/03/29 10:38:21;;;;;;;0.73;0.20;;;22.10;58.70;;;;;;5012139;28;20047;-83
2021/03/29 10:40:47;;;;;;;0.75;0.25;;;22.20;59.00;;;;;;5023722;28;20116;-83
2021/03/29 10:43:13;;;;;;;3.15;0.20;;;22.20;59.00;;;;;;5028352;28;20155;-83
2021/03/29 10:45:39;;;;;;;0.95;0.30;;;22.20;58.90;;;;;;5012024;28;20026;-84
2021/03/29 10:48:04;;;;;;;1.83;0.32;;;22.20;59.10;;;;;;5012430;28;20032;-84
2021/03/29 10:50:30;;;;;;;3.90;0.22;;;22.20;59.00;;;;;;5013721;28;20103;-82
2021/03/29 10:52:56;;;;;;;0.95;0.20;;;22.20;58.80;;;;;;5027516;28;20035;-81
2021/03/29 10:55:22;;;;;;;0.85;0.17;;;22.20;59.10;;;;;;5007298;28;20025;-82
2021/03/29 10:57:48;;;;;;;1.65;0.30;;;22.30;59.20;;;;;;5037724;28;20029;-83
2021/03/29 11:00:14;;;;;;;2.15;0.20;;;22.20;59.00;;;;;;5025644;28;20400;-81
2021/03/29 11:02:39;;;;;;;1.23;0.20;;;22.30;58.90;;;;;;5030441;28;20035;-83
2021/03/29 11:05:06;;;;;;;2.55;0.38;;;22.20;58.60;;;;;;5017205;28;20078;-84
2021/03/29 11:07:32;;;;;;;1.63;0.40;;;22.30;58.80;;;;;;5017128;28;20025;-84
2021/03/29 11:09:58;;;;;;;3.22;0.47;;;22.30;58.90;;;;;;5009535;28;20083;-83
2021/03/29 11:12:24;;;;;;;3.35;0.30;;;22.30;59.00;;;;;;5028454;28;20025;-83
2021/03/29 11:14:50;;;;;;;0.88;0.10;;;22.20;58.80;;;;;;5007455;28;20036;-84
2021/03/29 11:17:17;;;;;;;1.38;0.20;;;22.30;58.80;;;;;;5044691;28;20025;-84
2021/03/29 11:19:43;;;;;;;0.60;0.28;;;22.30;58.90;;;;;;5015589;28;20029;-83
2021/03/29 11:22:08;;;;;;;2.22;0.50;;;22.30;58.70;;;;;;5014791;28;20024;-83
2021/03/29 11:24:34;;;;;;;1.55;0.20;;;22.30;58.90;;;;;;5044687;28;20030;-83
2021/03/29 11:27:00;;;;;;;0.93;0.20;;;22.30;59.00;;;;;;5029118;28;20447;-83
2021/03/29 11:29:25;;;;;;;0.77;0.20;;;22.30;59.10;;;;;;5028053;28;20056;-84
2021/03/29 11:31:51;;;;;;;1.45;0.30;;;22.30;59.20;;;;;;5017916;28;20106;-83
2021/03/29 11:34:17;;;;;;;1.10;0.47;;;22.30;58.70;;;;;;5028287;28;20037;-83
2021/03/29 11:36:43;;;;;;;3.38;0.43;;;22.30;58.80;;;;;;5026574;28;20026;-82
2021/03/29 11:39:10;;;;;;;1.98;0.32;;;22.30;58.60;;;;;;5027119;28;20036;-83
2021/03/29 11:41:36;;;;;;;2.15;0.20;;;22.20;58.80;;;;;;5012374;28;20021;-83
2021/03/29 11:44:03;;;;;;;4.25;0.30;;;22.30;58.70;;;;;;5009738;28;20025;-83
2021/03/29 11:46:28;;;;;;;1.63;0.20;;;22.30;59.00;;;;;;5014302;28;20022;-83
2021/03/29 11:48:54;;;;;;;1.25;0.20;;;22.30;58.70;;;;;;5012676;28;20032;-83
2021/03/29 11:51:20;;;;;;;0.70;0.20;;;22.30;59.30;;;;;;5026568;28;20048;-83
2021/03/29 11:53:45;;;;;;;0.55;0.10;;;22.30;59.00;;;;;;5025398;28;20025;-83
2021/03/29 11:56:11;;;;;;;2.03;0.25;;;22.30;58.70;;;;;;5010945;28;20033;-83
2021/03/29 11:58:37;;;;;;;0.90;0.28;;;22.30;58.80;;;;;;5017361;28;20301;-83
2021/03/29 12:01:22;;;;;;;1.85;0.20;;;22.30;58.70;;;;;;5027589;28;20136;-82
2021/03/29 12:03:50;;;;;;;1.30;0.20;;;22.30;58.50;;;;;;5026036;28;20045;-83
2021/03/29 12:06:21;;;;;;;0.40;0.10;;;22.30;58.70;;;;;;5043245;28;20037;-84
2021/03/29 12:08:53;;;;;;;1.20;0.20;;;22.30;58.60;;;;;;5007772;28;20075;-84
2021/03/29 12:14:07;;;;;;;0.55;0.10;;;22.30;58.90;;;;;;5042469;28;20037;-82
2021/03/29 12:16:39;;;;;;;2.25;0.20;;;22.30;58.40;;;;;;5007986;28;20028;-83
2021/03/29 12:19:04;;;;;;;;;;;22.30;58.50;;;;;;5026105;28;20037;-83
2021/03/29 12:21:37;;;;;;;0.38;0.10;;;22.30;58.40;;;;;;5011670;28;19916;-83
2021/03/29 12:24:07;;;;;;;1.42;0.30;;;22.30;58.30;;;;;;5022539;28;20096;-82
2021/03/29 12:26:35;;;;;;;2.05;0.30;;;22.40;58.60;;;;;;5009592;28;20025;-84
2021/03/29 12:29:01;;;;;;;1.42;0.20;;;22.40;58.70;;;;;;5041161;28;20059;-83
2021/03/29 12:31:26;;;;;;;1.10;0.30;;;22.40;58.50;;;;;;5023265;28;20497;-83
2021/03/29 12:33:54;;;;;;;0.98;0.30;;;22.40;58.70;;;;;;5023096;28;20104;-83
2021/03/29 12:36:21;;;;;;;1.15;0.20;;;22.40;58.60;;;;;;5026045;28;20026;-83
2021/03/29 12:38:59;;;;;;;1.40;0.32;;;22.40;58.40;;;;;;5052149;28;20025;-83
2021/03/29 12:41:25;;;;;;;1.13;0.20;;;22.40;58.60;;;;;;5014050;28;20050;-83
2021/03/29 12:43:53;;;;;;;0.60;0.17;;;22.40;58.50;;;;;;5009233;28;20171;-83
2021/03/29 12:46:20;;;;;;;0.98;0.20;;;22.40;58.60;;;;;;5007117;28;20025;-83
2021/03/29 12:48:46;;;;;;;1.05;0.43;;;22.40;58.50;;;;;;5025412;28;20029;-83
2021/03/29 12:51:14;;;;;;;1.52;0.20;;;22.40;58.40;;;;;;5009112;28;20029;-83
2021/03/29 12:53:40;;;;;;;1.48;0.25;;;22.40;58.50;;;;;;5024676;28;20096;-83
2021/03/29 12:56:05;;;;;;;1.15;0.28;;;22.40;58.70;;;;;;5005501;28;20114;-83
2021/03/29 12:58:36;;;;;;;1.30;0.30;;;22.40;58.60;;;;;;5007699;28;20175;-83
2021/03/29 13:01:07;;;;;;;1.15;0.20;;;22.40;58.70;;;;;;5014107;28;20033;-83
2021/03/29 13:03:41;;;;;;;0.60;0.10;;;22.40;58.70;;;;;;5024486;28;20460;-83
2021/03/29 13:06:24;;;;;;;1.33;0.20;;;22.40;58.60;;;;;;5008019;28;20025;-83